UAL1001 KBZN-KLAX
Flight info
| Callsign | UAL1001 |
|---|---|
| Flight time | 2h 15m |
| Altitude | 35000 |
| Route | BGSKY2 DBS PROXI Q842 WINEN Q73 HAKMN ANJLL4 |
| Aircraft | B739/M-SDE2E3FGHIRWXY/LB1 |
Departure
| Time | 2026-04-21 20:28 |
|---|---|
| Airport | Bozeman Yellowstone International Airport (KBZN) |
Arrival
| Time | 2026-04-21 22:44 |
|---|---|
| Airport | Los Angeles International Airport (KLAX) |
| Time | Latitude | Longitude | Altitude | Speed | Heading |
|---|---|---|---|---|---|
| 2026-04-21 20:04 | 45.77916 | -111.16087 | 4472 ft | 0 kts | 216° |
| 2026-04-21 20:12 | 45.77917 | -111.16087 | 4472 ft | 0 kts | 216° |
| 2026-04-21 20:19 | 45.77920 | -111.16084 | 4472 ft | 2 kts | 216° |
| 2026-04-21 20:19 | 45.77932 | -111.16069 | 4472 ft | 2 kts | 240° |
| 2026-04-21 20:19 | 45.77937 | -111.16048 | 4472 ft | 2 kts | 267° |
| 2026-04-21 20:20 | 45.77934 | -111.16027 | 4472 ft | 2 kts | 296° |
| 2026-04-21 20:20 | 45.77929 | -111.16016 | 4472 ft | 0 kts | 314° |
| 2026-04-21 20:20 | 45.77924 | -111.16009 | 4472 ft | 0 kts | 316° |
| 2026-04-21 20:24 | 45.77925 | -111.16011 | 4472 ft | 1 kts | 317° |
| 2026-04-21 20:24 | 45.77958 | -111.16054 | 4471 ft | 9 kts | 322° |
| 2026-04-21 20:24 | 45.78022 | -111.16054 | 4470 ft | 10 kts | 34° |
| 2026-04-21 20:24 | 45.78089 | -111.16058 | 4469 ft | 11 kts | 317° |
| 2026-04-21 20:25 | 45.78154 | -111.16149 | 4468 ft | 13 kts | 316° |
| 2026-04-21 20:25 | 45.78221 | -111.16243 | 4467 ft | 13 kts | 315° |
| 2026-04-21 20:25 | 45.78287 | -111.16336 | 4465 ft | 13 kts | 317° |
| 2026-04-21 20:25 | 45.78358 | -111.16429 | 4463 ft | 14 kts | 314° |
| 2026-04-21 20:26 | 45.78429 | -111.16531 | 4461 ft | 14 kts | 316° |
| 2026-04-21 20:26 | 45.78506 | -111.16638 | 4458 ft | 15 kts | 316° |
| 2026-04-21 20:26 | 45.78586 | -111.16749 | 4456 ft | 16 kts | 316° |
| 2026-04-21 20:26 | 45.78671 | -111.16813 | 4455 ft | 12 kts | 17° |
| 2026-04-21 20:27 | 45.78738 | -111.16726 | 4453 ft | 13 kts | 49° |
| 2026-04-21 20:27 | 45.78788 | -111.16634 | 4451 ft | 5 kts | 96° |
| 2026-04-21 20:27 | 45.78771 | -111.16598 | 4452 ft | 0 kts | 133° |
| 2026-04-21 20:27 | 45.78765 | -111.16589 | 4452 ft | 12 kts | 134° |
| 2026-04-21 20:28 | 45.78520 | -111.16245 | 4459 ft | 84 kts | 136° |
| 2026-04-21 20:28 | 45.77949 | -111.15452 | 4471 ft | 144 kts | 136° |
| 2026-04-21 20:28 | 45.77107 | -111.14278 | 4641 ft | 181 kts | 139° |
| 2026-04-21 20:28 | 45.76233 | -111.13057 | 5329 ft | 181 kts | 141° |
| 2026-04-21 20:29 | 45.75077 | -111.12251 | 5768 ft | 196 kts | 177° |
| 2026-04-21 20:29 | 45.73767 | -111.12744 | 6307 ft | 206 kts | 210° |
| 2026-04-21 20:29 | 45.72510 | -111.13846 | 6786 ft | 221 kts | 211° |
| 2026-04-21 20:29 | 45.71160 | -111.15028 | 7215 ft | 231 kts | 212° |
| 2026-04-21 20:30 | 45.69813 | -111.16277 | 7782 ft | 235 kts | 213° |
| 2026-04-21 20:30 | 45.68484 | -111.17565 | 8647 ft | 235 kts | 213° |
| 2026-04-21 20:30 | 45.67015 | -111.18768 | 9088 ft | 256 kts | 206° |
| 2026-04-21 20:30 | 45.65442 | -111.20293 | 9129 ft | 292 kts | 226° |
| 2026-04-21 20:31 | 45.64510 | -111.22944 | 9802 ft | 305 kts | 254° |
| 2026-04-21 20:31 | 45.64124 | -111.25848 | 10681 ft | 306 kts | 257° |
| 2026-04-21 20:31 | 45.63720 | -111.28912 | 11158 ft | 322 kts | 256° |
| 2026-04-21 20:31 | 45.63251 | -111.32084 | 11629 ft | 336 kts | 255° |
| 2026-04-21 20:32 | 45.62733 | -111.35392 | 12069 ft | 352 kts | 255° |
| 2026-04-21 20:32 | 45.62177 | -111.38872 | 12513 ft | 366 kts | 255° |
| 2026-04-21 20:32 | 45.61598 | -111.42466 | 12907 ft | 382 kts | 255° |
| 2026-04-21 20:32 | 45.61002 | -111.46168 | 13661 ft | 385 kts | 254° |
| 2026-04-21 20:33 | 45.60397 | -111.49908 | 14529 ft | 386 kts | 255° |
| 2026-04-21 20:33 | 45.59793 | -111.53611 | 15294 ft | 388 kts | 254° |
| 2026-04-21 20:33 | 45.58991 | -111.57239 | 15983 ft | 389 kts | 246° |
| 2026-04-21 20:33 | 45.57713 | -111.60583 | 16757 ft | 386 kts | 233° |
| 2026-04-21 20:34 | 45.55884 | -111.63402 | 17455 ft | 387 kts | 222° |
| 2026-04-21 20:34 | 45.53747 | -111.65734 | 18059 ft | 391 kts | 213° |
| 2026-04-21 20:34 | 45.51336 | -111.67554 | 18703 ft | 395 kts | 205° |
| 2026-04-21 20:34 | 45.48836 | -111.69080 | 19341 ft | 398 kts | 203° |
| 2026-04-21 20:35 | 45.46255 | -111.70588 | 19968 ft | 400 kts | 203° |
| 2026-04-21 20:35 | 45.43715 | -111.72090 | 20586 ft | 402 kts | 204° |
| 2026-04-21 20:35 | 45.41105 | -111.73656 | 21208 ft | 404 kts | 204° |
| 2026-04-21 20:35 | 45.38534 | -111.75208 | 21734 ft | 407 kts | 204° |
| 2026-04-21 20:36 | 45.35939 | -111.76777 | 22266 ft | 410 kts | 204° |
| 2026-04-21 20:36 | 45.33302 | -111.78374 | 22783 ft | 413 kts | 204° |
| 2026-04-21 20:36 | 45.30624 | -111.79895 | 23378 ft | 415 kts | 201° |
| 2026-04-21 20:36 | 45.27871 | -111.81111 | 23826 ft | 420 kts | 197° |
| 2026-04-21 20:37 | 45.25041 | -111.82137 | 24495 ft | 421 kts | 195° |
| 2026-04-21 20:37 | 45.22182 | -111.83117 | 24959 ft | 426 kts | 195° |
| 2026-04-21 20:37 | 45.19304 | -111.84094 | 25506 ft | 429 kts | 195° |
| 2026-04-21 20:37 | 45.16403 | -111.85077 | 26057 ft | 431 kts | 195° |
| 2026-04-21 20:38 | 45.13497 | -111.86060 | 26571 ft | 434 kts | 195° |
| 2026-04-21 20:38 | 45.10539 | -111.87059 | 27072 ft | 437 kts | 195° |
| 2026-04-21 20:38 | 45.07575 | -111.88064 | 27634 ft | 438 kts | 195° |
| 2026-04-21 20:38 | 45.04637 | -111.89059 | 28163 ft | 440 kts | 195° |
| 2026-04-21 20:39 | 45.01667 | -111.90062 | 28877 ft | 437 kts | 195° |
| 2026-04-21 20:39 | 44.98748 | -111.91048 | 29712 ft | 430 kts | 195° |
| 2026-04-21 20:39 | 44.95849 | -111.92028 | 30472 ft | 425 kts | 195° |
| 2026-04-21 20:39 | 44.93002 | -111.92987 | 31240 ft | 419 kts | 195° |
| 2026-04-21 20:40 | 44.90198 | -111.93931 | 31702 ft | 420 kts | 195° |
| 2026-04-21 20:40 | 44.87339 | -111.94896 | 31902 ft | 426 kts | 195° |
| 2026-04-21 20:40 | 44.84414 | -111.95882 | 32180 ft | 430 kts | 195° |
| 2026-04-21 20:40 | 44.81480 | -111.96867 | 32808 ft | 426 kts | 195° |
| 2026-04-21 20:41 | 44.78621 | -111.97826 | 33631 ft | 418 kts | 194° |
| 2026-04-21 20:41 | 44.75814 | -111.98766 | 34237 ft | 414 kts | 194° |
| 2026-04-21 20:41 | 44.73011 | -111.99704 | 34816 ft | 412 kts | 195° |
| 2026-04-21 20:41 | 44.70206 | -112.00642 | 35095 ft | 415 kts | 194° |
| 2026-04-21 20:42 | 44.64560 | -112.02530 | 35101 ft | 412 kts | 195° |
| 2026-04-21 20:42 | 44.59021 | -112.04376 | 35087 ft | 407 kts | 195° |
| 2026-04-21 20:43 | 44.53481 | -112.06220 | 35088 ft | 410 kts | 194° |
| 2026-04-21 20:43 | 44.47942 | -112.08061 | 35083 ft | 409 kts | 194° |
| 2026-04-21 20:44 | 44.42379 | -112.09903 | 35081 ft | 410 kts | 194° |
| 2026-04-21 20:44 | 44.36814 | -112.11743 | 35068 ft | 410 kts | 194° |
| 2026-04-21 20:45 | 44.31278 | -112.13571 | 35054 ft | 410 kts | 194° |
| 2026-04-21 20:45 | 44.25702 | -112.15408 | 35043 ft | 410 kts | 194° |
| 2026-04-21 20:46 | 44.20162 | -112.17230 | 35039 ft | 409 kts | 194° |
| 2026-04-21 20:46 | 44.14618 | -112.19048 | 35030 ft | 408 kts | 194° |
| 2026-04-21 20:47 | 44.09065 | -112.20847 | 35023 ft | 409 kts | 192° |
| 2026-04-21 20:47 | 44.03438 | -112.21903 | 35017 ft | 408 kts | 187° |
| 2026-04-21 20:48 | 43.97775 | -112.22711 | 35014 ft | 410 kts | 187° |
| 2026-04-21 20:48 | 43.92107 | -112.23553 | 35012 ft | 409 kts | 188° |
| 2026-04-21 20:49 | 43.86485 | -112.24404 | 35014 ft | 409 kts | 188° |
| 2026-04-21 20:49 | 43.80817 | -112.25267 | 35008 ft | 407 kts | 188° |
| 2026-04-21 20:50 | 43.75201 | -112.26126 | 35007 ft | 410 kts | 188° |
| 2026-04-21 20:50 | 43.69523 | -112.26994 | 35008 ft | 409 kts | 188° |
| 2026-04-21 20:51 | 43.63914 | -112.27850 | 34992 ft | 408 kts | 188° |
| 2026-04-21 20:51 | 43.58257 | -112.28714 | 34997 ft | 408 kts | 187° |
| 2026-04-21 20:52 | 43.52646 | -112.29567 | 35002 ft | 407 kts | 188° |
| 2026-04-21 20:52 | 43.47005 | -112.30423 | 34997 ft | 408 kts | 188° |
| 2026-04-21 20:53 | 43.41392 | -112.31274 | 34992 ft | 406 kts | 188° |
| 2026-04-21 20:53 | 43.35761 | -112.32126 | 35003 ft | 407 kts | 187° |
| 2026-04-21 20:54 | 43.30110 | -112.32983 | 35001 ft | 406 kts | 187° |
| 2026-04-21 20:54 | 43.24498 | -112.33828 | 35004 ft | 406 kts | 187° |
| 2026-04-21 20:55 | 43.18888 | -112.34671 | 34992 ft | 405 kts | 187° |
| 2026-04-21 20:55 | 43.13292 | -112.35513 | 34987 ft | 406 kts | 187° |
| 2026-04-21 20:56 | 43.07716 | -112.36358 | 34978 ft | 404 kts | 187° |
| 2026-04-21 20:56 | 43.02134 | -112.37184 | 34978 ft | 405 kts | 187° |
| 2026-04-21 20:57 | 42.96517 | -112.38020 | 34971 ft | 406 kts | 187° |
| 2026-04-21 20:57 | 42.90929 | -112.38863 | 34976 ft | 405 kts | 187° |
| 2026-04-21 20:58 | 42.85274 | -112.39705 | 34973 ft | 407 kts | 187° |
| 2026-04-21 20:58 | 42.79664 | -112.40520 | 35002 ft | 406 kts | 187° |
| 2026-04-21 20:59 | 42.74044 | -112.41354 | 35013 ft | 406 kts | 187° |
| 2026-04-21 20:59 | 42.68431 | -112.42194 | 35019 ft | 406 kts | 188° |
| 2026-04-21 21:00 | 42.62841 | -112.43021 | 35027 ft | 405 kts | 187° |
| 2026-04-21 21:00 | 42.57212 | -112.43853 | 35027 ft | 407 kts | 187° |
| 2026-04-21 21:01 | 42.51570 | -112.44679 | 35030 ft | 406 kts | 187° |
| 2026-04-21 21:01 | 42.45974 | -112.45499 | 35030 ft | 406 kts | 187° |
| 2026-04-21 21:02 | 42.40385 | -112.46322 | 35041 ft | 406 kts | 187° |
| 2026-04-21 21:02 | 42.34739 | -112.47151 | 35035 ft | 407 kts | 188° |
| 2026-04-21 21:03 | 42.29137 | -112.47983 | 35036 ft | 406 kts | 187° |
| 2026-04-21 21:03 | 42.23545 | -112.48797 | 35033 ft | 405 kts | 188° |
| 2026-04-21 21:04 | 42.17899 | -112.49612 | 35029 ft | 406 kts | 187° |
| 2026-04-21 21:04 | 42.12272 | -112.50427 | 35028 ft | 407 kts | 187° |
| 2026-04-21 21:05 | 42.06669 | -112.51218 | 35022 ft | 406 kts | 187° |
| 2026-04-21 21:05 | 42.01020 | -112.52036 | 35018 ft | 407 kts | 187° |
| 2026-04-21 21:06 | 41.95405 | -112.52722 | 35007 ft | 408 kts | 184° |
| 2026-04-21 21:06 | 41.89684 | -112.52775 | 35004 ft | 408 kts | 182° |
| 2026-04-21 21:07 | 41.83994 | -112.52778 | 35010 ft | 408 kts | 182° |
| 2026-04-21 21:07 | 41.78315 | -112.52823 | 35007 ft | 409 kts | 182° |
| 2026-04-21 21:08 | 41.72613 | -112.52872 | 34996 ft | 409 kts | 182° |
| 2026-04-21 21:08 | 41.66930 | -112.52928 | 34992 ft | 409 kts | 182° |
| 2026-04-21 21:09 | 41.61240 | -112.52988 | 35006 ft | 409 kts | 182° |
| 2026-04-21 21:09 | 41.55553 | -112.53046 | 35007 ft | 407 kts | 182° |
| 2026-04-21 21:10 | 41.49869 | -112.53102 | 35025 ft | 410 kts | 182° |
| 2026-04-21 21:10 | 41.44178 | -112.53151 | 35015 ft | 408 kts | 182° |
| 2026-04-21 21:11 | 41.38518 | -112.53210 | 35001 ft | 408 kts | 182° |
| 2026-04-21 21:11 | 41.32816 | -112.53276 | 34999 ft | 407 kts | 182° |
| 2026-04-21 21:12 | 41.27171 | -112.53334 | 34980 ft | 407 kts | 182° |
| 2026-04-21 21:12 | 41.21520 | -112.53497 | 34965 ft | 407 kts | 183° |
| 2026-04-21 21:13 | 41.15857 | -112.53740 | 34971 ft | 407 kts | 183° |
| 2026-04-21 21:13 | 41.10186 | -112.53975 | 34973 ft | 407 kts | 183° |
| 2026-04-21 21:14 | 41.04517 | -112.54204 | 34964 ft | 408 kts | 183° |
| 2026-04-21 21:14 | 40.98860 | -112.54420 | 34967 ft | 407 kts | 183° |
| 2026-04-21 21:15 | 40.93214 | -112.54636 | 34966 ft | 408 kts | 184° |
| 2026-04-21 21:15 | 40.87513 | -112.54851 | 34964 ft | 409 kts | 183° |
| 2026-04-21 21:16 | 40.81844 | -112.55067 | 34959 ft | 407 kts | 183° |
| 2026-04-21 21:16 | 40.76179 | -112.55291 | 34957 ft | 408 kts | 184° |
| 2026-04-21 21:17 | 40.70505 | -112.55512 | 34955 ft | 408 kts | 183° |
| 2026-04-21 21:17 | 40.64878 | -112.55729 | 34967 ft | 407 kts | 184° |
| 2026-04-21 21:18 | 40.59185 | -112.55949 | 34971 ft | 408 kts | 183° |
| 2026-04-21 21:18 | 40.53499 | -112.56167 | 34991 ft | 408 kts | 183° |
| 2026-04-21 21:19 | 40.47841 | -112.56386 | 34998 ft | 407 kts | 184° |
| 2026-04-21 21:19 | 40.42177 | -112.56602 | 35008 ft | 408 kts | 184° |
| 2026-04-21 21:20 | 40.36525 | -112.56819 | 35023 ft | 408 kts | 184° |
| 2026-04-21 21:20 | 40.30809 | -112.57035 | 35031 ft | 407 kts | 184° |
| 2026-04-21 21:21 | 40.25142 | -112.57251 | 35032 ft | 408 kts | 184° |
| 2026-04-21 21:21 | 40.19482 | -112.57466 | 35036 ft | 409 kts | 183° |
| 2026-04-21 21:22 | 40.13805 | -112.57680 | 35041 ft | 409 kts | 184° |
| 2026-04-21 21:22 | 40.08120 | -112.57898 | 35047 ft | 409 kts | 184° |
| 2026-04-21 21:23 | 40.02416 | -112.58117 | 35057 ft | 408 kts | 184° |
| 2026-04-21 21:23 | 39.96773 | -112.58828 | 35060 ft | 407 kts | 192° |
| 2026-04-21 21:24 | 39.91315 | -112.60852 | 35046 ft | 408 kts | 199° |
| 2026-04-21 21:24 | 39.85976 | -112.63290 | 35035 ft | 407 kts | 199° |
| 2026-04-21 21:25 | 39.80639 | -112.65758 | 35024 ft | 407 kts | 199° |
| 2026-04-21 21:25 | 39.75309 | -112.68218 | 35008 ft | 406 kts | 199° |
| 2026-04-21 21:26 | 39.69958 | -112.70686 | 34995 ft | 407 kts | 199° |
| 2026-04-21 21:26 | 39.64637 | -112.73137 | 35003 ft | 407 kts | 199° |
| 2026-04-21 21:27 | 39.59288 | -112.75597 | 35001 ft | 406 kts | 199° |
| 2026-04-21 21:27 | 39.53956 | -112.78046 | 35011 ft | 406 kts | 199° |
| 2026-04-21 21:28 | 39.48641 | -112.80482 | 35012 ft | 407 kts | 199° |
| 2026-04-21 21:29 | 39.40616 | -112.84155 | 35011 ft | 407 kts | 199° |
| 2026-04-21 21:29 | 39.35262 | -112.86601 | 35013 ft | 408 kts | 200° |
| 2026-04-21 21:30 | 39.29886 | -112.89053 | 35018 ft | 408 kts | 199° |
| 2026-04-21 21:30 | 39.24549 | -112.91482 | 35018 ft | 408 kts | 199° |
| 2026-04-21 21:31 | 39.19180 | -112.93922 | 35026 ft | 408 kts | 200° |
| 2026-04-21 21:31 | 39.13851 | -112.96340 | 35022 ft | 407 kts | 199° |
| 2026-04-21 21:32 | 39.08526 | -112.98752 | 35026 ft | 407 kts | 199° |
| 2026-04-21 21:32 | 39.03169 | -113.01174 | 35027 ft | 407 kts | 199° |
| 2026-04-21 21:33 | 38.97838 | -113.03581 | 35032 ft | 407 kts | 200° |
| 2026-04-21 21:33 | 38.92501 | -113.05988 | 35033 ft | 406 kts | 200° |
| 2026-04-21 21:34 | 38.87162 | -113.08391 | 35025 ft | 407 kts | 200° |
| 2026-04-21 21:34 | 38.81829 | -113.10786 | 35039 ft | 408 kts | 200° |
| 2026-04-21 21:35 | 38.76433 | -113.13208 | 35029 ft | 407 kts | 200° |
| 2026-04-21 21:35 | 38.71099 | -113.15597 | 35030 ft | 409 kts | 200° |
| 2026-04-21 21:36 | 38.65736 | -113.17996 | 35045 ft | 407 kts | 201° |
| 2026-04-21 21:36 | 38.60399 | -113.20375 | 35055 ft | 407 kts | 201° |
| 2026-04-21 21:37 | 38.55063 | -113.22753 | 35076 ft | 408 kts | 201° |
| 2026-04-21 21:37 | 38.49708 | -113.25135 | 35084 ft | 407 kts | 201° |
| 2026-04-21 21:38 | 38.44360 | -113.27509 | 35084 ft | 408 kts | 200° |
| 2026-04-21 21:38 | 38.39002 | -113.29884 | 35074 ft | 408 kts | 201° |
| 2026-04-21 21:39 | 38.33646 | -113.32256 | 35092 ft | 406 kts | 201° |
| 2026-04-21 21:39 | 38.28258 | -113.34639 | 35095 ft | 409 kts | 201° |
| 2026-04-21 21:40 | 38.22909 | -113.36999 | 35100 ft | 407 kts | 201° |
| 2026-04-21 21:40 | 38.17571 | -113.39352 | 35102 ft | 406 kts | 201° |
| 2026-04-21 21:41 | 38.12234 | -113.41695 | 35108 ft | 406 kts | 201° |
| 2026-04-21 21:41 | 38.06907 | -113.44035 | 35114 ft | 406 kts | 202° |
| 2026-04-21 21:42 | 38.01576 | -113.46375 | 35115 ft | 407 kts | 201° |
| 2026-04-21 21:42 | 37.96230 | -113.48714 | 35106 ft | 406 kts | 201° |
| 2026-04-21 21:43 | 37.90762 | -113.50671 | 35102 ft | 410 kts | 195° |
| 2026-04-21 21:43 | 37.85186 | -113.52014 | 35093 ft | 410 kts | 194° |
| 2026-04-21 21:44 | 37.79585 | -113.53334 | 35091 ft | 411 kts | 194° |
| 2026-04-21 21:44 | 37.73969 | -113.54678 | 35093 ft | 410 kts | 195° |
| 2026-04-21 21:45 | 37.68370 | -113.56020 | 35096 ft | 407 kts | 194° |
| 2026-04-21 21:45 | 37.62830 | -113.57346 | 35100 ft | 407 kts | 195° |
| 2026-04-21 21:46 | 37.57239 | -113.58688 | 35105 ft | 408 kts | 195° |
| 2026-04-21 21:46 | 37.51700 | -113.60017 | 35104 ft | 408 kts | 195° |
| 2026-04-21 21:47 | 37.46117 | -113.61352 | 35104 ft | 410 kts | 195° |
| 2026-04-21 21:47 | 37.40492 | -113.62694 | 35097 ft | 407 kts | 195° |
| 2026-04-21 21:48 | 37.34948 | -113.64017 | 35087 ft | 407 kts | 195° |
| 2026-04-21 21:48 | 37.29348 | -113.65352 | 35070 ft | 408 kts | 194° |
| 2026-04-21 21:49 | 37.23757 | -113.66680 | 35054 ft | 406 kts | 194° |
| 2026-04-21 21:49 | 37.18234 | -113.67991 | 35042 ft | 407 kts | 195° |
| 2026-04-21 21:50 | 37.12672 | -113.69308 | 35028 ft | 406 kts | 195° |
| 2026-04-21 21:50 | 37.07107 | -113.70651 | 35024 ft | 406 kts | 196° |
| 2026-04-21 21:51 | 37.01759 | -113.72713 | 35015 ft | 401 kts | 204° |
| 2026-04-21 21:51 | 36.96578 | -113.75194 | 35021 ft | 400 kts | 204° |
| 2026-04-21 21:52 | 36.91375 | -113.77698 | 35024 ft | 400 kts | 204° |
| 2026-04-21 21:52 | 36.86186 | -113.80200 | 35004 ft | 400 kts | 204° |
| 2026-04-21 21:53 | 36.80985 | -113.82710 | 35007 ft | 401 kts | 205° |
| 2026-04-21 21:53 | 36.75755 | -113.85232 | 35001 ft | 403 kts | 205° |
| 2026-04-21 21:54 | 36.70551 | -113.87736 | 34990 ft | 399 kts | 205° |
| 2026-04-21 21:54 | 36.65390 | -113.90224 | 34978 ft | 401 kts | 206° |
| 2026-04-21 21:55 | 36.60296 | -113.92982 | 34970 ft | 398 kts | 208° |
| 2026-04-21 21:55 | 36.55252 | -113.95822 | 34968 ft | 399 kts | 208° |
| 2026-04-21 21:56 | 36.50179 | -113.98639 | 34982 ft | 398 kts | 208° |
| 2026-04-21 21:56 | 36.45112 | -114.01440 | 34968 ft | 401 kts | 208° |
| 2026-04-21 21:57 | 36.40083 | -114.04397 | 34956 ft | 396 kts | 213° |
| 2026-04-21 21:57 | 36.35404 | -114.07976 | 34937 ft | 395 kts | 216° |
| 2026-04-21 21:58 | 36.30767 | -114.11588 | 34949 ft | 396 kts | 215° |
| 2026-04-21 21:58 | 36.26085 | -114.15182 | 34954 ft | 393 kts | 214° |
| 2026-04-21 21:59 | 36.21427 | -114.18749 | 34960 ft | 395 kts | 215° |
| 2026-04-21 21:59 | 36.16755 | -114.22324 | 34979 ft | 395 kts | 214° |
| 2026-04-21 22:00 | 36.12123 | -114.25880 | 34959 ft | 393 kts | 216° |
| 2026-04-21 22:00 | 36.07781 | -114.29991 | 34942 ft | 392 kts | 225° |
| 2026-04-21 22:01 | 36.04057 | -114.34847 | 34923 ft | 390 kts | 229° |
| 2026-04-21 22:01 | 36.00453 | -114.39823 | 34908 ft | 390 kts | 229° |
| 2026-04-21 22:02 | 35.96823 | -114.44840 | 34909 ft | 390 kts | 230° |
| 2026-04-21 22:02 | 35.93216 | -114.49822 | 34910 ft | 391 kts | 229° |
| 2026-04-21 22:03 | 35.89611 | -114.54785 | 34911 ft | 389 kts | 229° |
| 2026-04-21 22:03 | 35.85978 | -114.59777 | 34912 ft | 390 kts | 230° |
| 2026-04-21 22:04 | 35.82354 | -114.64752 | 34901 ft | 390 kts | 229° |
| 2026-04-21 22:04 | 35.78765 | -114.69679 | 34905 ft | 388 kts | 229° |
| 2026-04-21 22:05 | 35.75162 | -114.74622 | 34894 ft | 389 kts | 229° |
| 2026-04-21 22:05 | 35.71563 | -114.79549 | 34897 ft | 387 kts | 229° |
| 2026-04-21 22:06 | 35.67952 | -114.84490 | 34914 ft | 388 kts | 229° |
| 2026-04-21 22:06 | 35.64352 | -114.89408 | 34925 ft | 388 kts | 229° |
| 2026-04-21 22:07 | 35.60760 | -114.94324 | 34938 ft | 389 kts | 229° |
| 2026-04-21 22:07 | 35.57173 | -114.99227 | 34957 ft | 385 kts | 229° |
| 2026-04-21 22:08 | 35.53561 | -115.04156 | 34977 ft | 389 kts | 229° |
| 2026-04-21 22:08 | 35.49973 | -115.09028 | 34979 ft | 386 kts | 229° |
| 2026-04-21 22:09 | 35.46285 | -115.13859 | 34986 ft | 386 kts | 228° |
| 2026-04-21 22:09 | 35.42591 | -115.18661 | 34989 ft | 388 kts | 228° |
| 2026-04-21 22:10 | 35.38924 | -115.23446 | 34996 ft | 387 kts | 228° |
| 2026-04-21 22:10 | 35.35246 | -115.28230 | 35007 ft | 385 kts | 229° |
| 2026-04-21 22:11 | 35.31585 | -115.32990 | 35010 ft | 386 kts | 228° |
| 2026-04-21 22:11 | 35.27929 | -115.37740 | 35013 ft | 384 kts | 229° |
| 2026-04-21 22:12 | 35.24240 | -115.42526 | 35011 ft | 385 kts | 229° |
| 2026-04-21 22:12 | 35.20568 | -115.47282 | 35011 ft | 385 kts | 228° |
| 2026-04-21 22:13 | 35.16900 | -115.52023 | 35007 ft | 384 kts | 228° |
| 2026-04-21 22:13 | 35.13233 | -115.56758 | 35004 ft | 383 kts | 229° |
| 2026-04-21 22:14 | 35.09561 | -115.61478 | 34994 ft | 383 kts | 229° |
| 2026-04-21 22:14 | 35.05895 | -115.66169 | 34979 ft | 384 kts | 227° |
| 2026-04-21 22:15 | 35.02209 | -115.70884 | 34963 ft | 385 kts | 228° |
| 2026-04-21 22:15 | 34.98506 | -115.75620 | 34936 ft | 385 kts | 228° |
| 2026-04-21 22:16 | 34.94802 | -115.80342 | 34947 ft | 385 kts | 228° |
| 2026-04-21 22:16 | 34.91108 | -115.85021 | 34942 ft | 384 kts | 228° |
| 2026-04-21 22:17 | 34.87387 | -115.89740 | 34947 ft | 385 kts | 228° |
| 2026-04-21 22:17 | 34.83691 | -115.94429 | 34953 ft | 384 kts | 228° |
| 2026-04-21 22:18 | 34.79998 | -115.99104 | 34953 ft | 383 kts | 228° |
| 2026-04-21 22:18 | 34.76269 | -116.03824 | 34957 ft | 384 kts | 228° |
| 2026-04-21 22:19 | 34.72608 | -116.08491 | 34959 ft | 383 kts | 228° |
| 2026-04-21 22:19 | 34.68903 | -116.13213 | 34973 ft | 384 kts | 229° |
| 2026-04-21 22:20 | 34.65219 | -116.17896 | 34974 ft | 384 kts | 228° |
| 2026-04-21 22:20 | 34.61542 | -116.22568 | 34981 ft | 384 kts | 229° |
| 2026-04-21 22:21 | 34.57848 | -116.27254 | 35002 ft | 385 kts | 229° |
| 2026-04-21 22:21 | 34.54142 | -116.31944 | 35004 ft | 384 kts | 229° |
| 2026-04-21 22:22 | 34.50459 | -116.36601 | 35016 ft | 385 kts | 229° |
| 2026-04-21 22:22 | 34.46756 | -116.41274 | 35018 ft | 381 kts | 229° |
| 2026-04-21 22:23 | 34.43166 | -116.46018 | 35034 ft | 386 kts | 233° |
| 2026-04-21 22:23 | 34.40174 | -116.51511 | 35028 ft | 395 kts | 242° |
| 2026-04-21 22:24 | 34.37701 | -116.57401 | 35033 ft | 388 kts | 243° |
| 2026-04-21 22:24 | 34.35318 | -116.63157 | 35051 ft | 384 kts | 244° |
| 2026-04-21 22:25 | 34.32893 | -116.69016 | 35030 ft | 389 kts | 243° |
| 2026-04-21 22:25 | 34.31712 | -116.71934 | 34623 ft | 387 kts | 244° |
| 2026-04-21 22:25 | 34.30539 | -116.74861 | 33709 ft | 391 kts | 244° |
| 2026-04-21 22:25 | 34.29357 | -116.77810 | 32679 ft | 397 kts | 243° |
| 2026-04-21 22:26 | 34.28147 | -116.80821 | 31688 ft | 401 kts | 243° |
| 2026-04-21 22:26 | 34.26941 | -116.83817 | 30516 ft | 402 kts | 243° |
| 2026-04-21 22:26 | 34.25712 | -116.86869 | 29046 ft | 409 kts | 243° |
| 2026-04-21 22:26 | 34.24462 | -116.89964 | 27515 ft | 415 kts | 242° |
| 2026-04-21 22:27 | 34.23208 | -116.93068 | 25992 ft | 420 kts | 243° |
| 2026-04-21 22:27 | 34.21943 | -116.96191 | 24554 ft | 421 kts | 243° |
| 2026-04-21 22:27 | 34.20775 | -116.99412 | 23459 ft | 416 kts | 248° |
| 2026-04-21 22:27 | 34.19844 | -117.02664 | 22695 ft | 404 kts | 250° |
| 2026-04-21 22:28 | 34.19007 | -117.05829 | 22124 ft | 401 kts | 250° |
| 2026-04-21 22:28 | 34.18158 | -117.09042 | 21484 ft | 400 kts | 250° |
| 2026-04-21 22:28 | 34.17308 | -117.12235 | 20863 ft | 394 kts | 250° |
| 2026-04-21 22:28 | 34.16473 | -117.15346 | 20255 ft | 390 kts | 250° |
| 2026-04-21 22:29 | 34.15633 | -117.18438 | 19643 ft | 388 kts | 250° |
| 2026-04-21 22:29 | 34.14798 | -117.21491 | 19028 ft | 384 kts | 250° |
| 2026-04-21 22:29 | 34.13966 | -117.24518 | 18412 ft | 380 kts | 250° |
| 2026-04-21 22:29 | 34.13134 | -117.27544 | 17782 ft | 380 kts | 250° |
| 2026-04-21 22:30 | 34.12314 | -117.30524 | 17119 ft | 376 kts | 250° |
| 2026-04-21 22:30 | 34.11499 | -117.33486 | 16491 ft | 370 kts | 250° |
| 2026-04-21 22:30 | 34.10707 | -117.36359 | 15895 ft | 356 kts | 250° |
| 2026-04-21 22:30 | 34.09969 | -117.39139 | 15323 ft | 344 kts | 251° |
| 2026-04-21 22:31 | 34.09293 | -117.41862 | 14768 ft | 332 kts | 251° |
| 2026-04-21 22:31 | 34.08652 | -117.44471 | 14249 ft | 325 kts | 251° |
| 2026-04-21 22:31 | 34.08007 | -117.47067 | 13706 ft | 323 kts | 251° |
| 2026-04-21 22:31 | 34.07349 | -117.49616 | 13291 ft | 315 kts | 249° |
| 2026-04-21 22:32 | 34.06560 | -117.52048 | 13092 ft | 302 kts | 245° |
| 2026-04-21 22:32 | 34.05731 | -117.54336 | 12593 ft | 301 kts | 245° |
| 2026-04-21 22:32 | 34.04881 | -117.56654 | 12067 ft | 300 kts | 245° |
| 2026-04-21 22:32 | 34.04052 | -117.58943 | 11603 ft | 298 kts | 245° |
| 2026-04-21 22:33 | 34.03231 | -117.61222 | 11141 ft | 296 kts | 245° |
| 2026-04-21 22:33 | 34.02415 | -117.63490 | 10684 ft | 294 kts | 245° |
| 2026-04-21 22:33 | 34.01609 | -117.65724 | 10329 ft | 287 kts | 244° |
| 2026-04-21 22:33 | 34.00876 | -117.67865 | 10173 ft | 272 kts | 249° |
| 2026-04-21 22:34 | 34.00477 | -117.70044 | 10078 ft | 261 kts | 258° |
| 2026-04-21 22:34 | 34.00281 | -117.72198 | 9783 ft | 258 kts | 260° |
| 2026-04-21 22:34 | 34.00095 | -117.74329 | 9411 ft | 257 kts | 260° |
| 2026-04-21 22:34 | 33.99894 | -117.76479 | 9065 ft | 255 kts | 260° |
| 2026-04-21 22:35 | 33.99694 | -117.78574 | 8726 ft | 254 kts | 260° |
| 2026-04-21 22:35 | 33.99491 | -117.80673 | 8400 ft | 252 kts | 261° |
| 2026-04-21 22:35 | 33.99285 | -117.82767 | 8075 ft | 251 kts | 260° |
| 2026-04-21 22:35 | 33.99084 | -117.84853 | 7747 ft | 250 kts | 261° |
| 2026-04-21 22:36 | 33.98678 | -117.89007 | 7103 ft | 250 kts | 261° |
| 2026-04-21 22:36 | 33.98467 | -117.91077 | 6851 ft | 248 kts | 261° |
| 2026-04-21 22:36 | 33.98262 | -117.93144 | 6463 ft | 251 kts | 262° |
| 2026-04-21 22:37 | 33.98055 | -117.95238 | 6132 ft | 250 kts | 262° |
| 2026-04-21 22:37 | 33.97857 | -117.97283 | 5813 ft | 248 kts | 262° |
| 2026-04-21 22:37 | 33.97680 | -117.99342 | 5492 ft | 247 kts | 263° |
| 2026-04-21 22:37 | 33.97498 | -118.01386 | 5244 ft | 242 kts | 262° |
| 2026-04-21 22:38 | 33.97309 | -118.03361 | 5154 ft | 233 kts | 262° |
| 2026-04-21 22:38 | 33.97123 | -118.05261 | 5084 ft | 223 kts | 261° |
| 2026-04-21 22:38 | 33.96943 | -118.07071 | 5010 ft | 215 kts | 261° |
| 2026-04-21 22:38 | 33.96759 | -118.08861 | 4802 ft | 216 kts | 261° |
| 2026-04-21 22:39 | 33.96576 | -118.10652 | 4521 ft | 217 kts | 261° |
| 2026-04-21 22:39 | 33.96390 | -118.12460 | 4234 ft | 217 kts | 262° |
| 2026-04-21 22:39 | 33.96203 | -118.14269 | 3953 ft | 215 kts | 262° |
| 2026-04-21 22:39 | 33.96020 | -118.16045 | 3664 ft | 213 kts | 262° |
| 2026-04-21 22:40 | 33.95840 | -118.17786 | 3384 ft | 211 kts | 262° |
| 2026-04-21 22:40 | 33.95659 | -118.19546 | 3097 ft | 208 kts | 262° |
| 2026-04-21 22:40 | 33.95484 | -118.21246 | 2829 ft | 202 kts | 262° |
| 2026-04-21 22:40 | 33.95314 | -118.22883 | 2576 ft | 192 kts | 261° |
| 2026-04-21 22:41 | 33.95157 | -118.24414 | 2351 ft | 179 kts | 261° |
| 2026-04-21 22:41 | 33.95005 | -118.25898 | 2102 ft | 174 kts | 262° |
| 2026-04-21 22:41 | 33.94863 | -118.27272 | 1868 ft | 159 kts | 261° |
| 2026-04-21 22:41 | 33.94732 | -118.28547 | 1662 ft | 150 kts | 261° |
| 2026-04-21 22:42 | 33.94605 | -118.29782 | 1469 ft | 147 kts | 261° |
| 2026-04-21 22:42 | 33.94477 | -118.31015 | 1275 ft | 148 kts | 260° |
| 2026-04-21 22:42 | 33.94353 | -118.32239 | 1076 ft | 149 kts | 261° |
| 2026-04-21 22:42 | 33.94229 | -118.33479 | 878 ft | 147 kts | 261° |
| 2026-04-21 22:43 | 33.94102 | -118.34703 | 684 ft | 147 kts | 260° |
| 2026-04-21 22:43 | 33.93978 | -118.35918 | 486 ft | 145 kts | 261° |
| 2026-04-21 22:43 | 33.93854 | -118.37131 | 350 ft | 148 kts | 261° |
| 2026-04-21 22:43 | 33.93729 | -118.38366 | 147 ft | 150 kts | 260° |
| 2026-04-21 22:44 | 33.93609 | -118.39519 | 110 ft | 114 kts | 263° |
| 2026-04-21 22:44 | 33.93538 | -118.40205 | 120 ft | 60 kts | 263° |
| 2026-04-21 22:44 | 33.93566 | -118.40556 | 124 ft | 18 kts | 292° |
| 2026-04-21 22:44 | 33.93597 | -118.40665 | 125 ft | 8 kts | 276° |
| 2026-04-21 22:45 | 33.93597 | -118.40734 | 125 ft | 7 kts | 266° |
| 2026-04-21 22:45 | 33.93596 | -118.40797 | 125 ft | 6 kts | 279° |
| 2026-04-21 22:45 | 33.93603 | -118.40829 | 126 ft | 0 kts | 289° |
| 2026-04-21 22:46 | 33.93605 | -118.40834 | 126 ft | 3 kts | 290° |
| 2026-04-21 22:46 | 33.93656 | -118.40896 | 126 ft | 13 kts | 346° |
| 2026-04-21 22:46 | 33.93747 | -118.40910 | 126 ft | 12 kts | 353° |
| 2026-04-21 22:46 | 33.93827 | -118.40923 | 126 ft | 11 kts | 355° |
| 2026-04-21 22:47 | 33.93875 | -118.40853 | 126 ft | 12 kts | 82° |
| 2026-04-21 22:47 | 33.93885 | -118.40752 | 126 ft | 12 kts | 84° |
| 2026-04-21 22:47 | 33.93895 | -118.40647 | 125 ft | 13 kts | 83° |
| 2026-04-21 22:47 | 33.93907 | -118.40535 | 123 ft | 13 kts | 83° |
| 2026-04-21 22:48 | 33.93919 | -118.40419 | 121 ft | 14 kts | 83° |
| 2026-04-21 22:48 | 33.93931 | -118.40305 | 120 ft | 12 kts | 82° |
| 2026-04-21 22:48 | 33.93941 | -118.40209 | 120 ft | 9 kts | 82° |
| 2026-04-21 22:48 | 33.93950 | -118.40137 | 119 ft | 8 kts | 84° |
| 2026-04-21 22:49 | 33.93957 | -118.40052 | 117 ft | 10 kts | 83° |
| 2026-04-21 22:49 | 33.93966 | -118.39964 | 116 ft | 11 kts | 84° |
| 2026-04-21 22:49 | 33.93975 | -118.39871 | 114 ft | 10 kts | 79° |
| 2026-04-21 22:49 | 33.94024 | -118.39831 | 113 ft | 8 kts | 356° |
| 2026-04-21 22:50 | 33.94077 | -118.39832 | 113 ft | 7 kts | 355° |
| 2026-04-21 22:50 | 33.94122 | -118.39838 | 113 ft | 5 kts | 352° |
| 2026-04-21 22:50 | 33.94150 | -118.39838 | 113 ft | 2 kts | 22° |
| 2026-04-21 22:50 | 33.94162 | -118.39820 | 113 ft | 2 kts | 70° |
| 2026-04-21 22:51 | 33.94166 | -118.39795 | 112 ft | 2 kts | 83° |
| 2026-04-21 22:51 | 33.94167 | -118.39782 | 112 ft | 0 kts | 84° |